Time;durP1;ratioP1;P1;durP2;ratioP2;P2;SDS_P1;SDS_P2;PMS_P1;PMS_P2;Temp;Humidity;BMP_temperature;BMP_pressure;BME280_temperature;BME280_humidity;BME280_pressure;Samples;Min_cycle;Max_cycle;Signal;HPM_P1;HPM_P2
2022/03/31 00:00:34;;;;;;;3.77;3.20;;;;;;;;;;4935648;29;20755;-75
2022/03/31 00:03:02;;;;;;;3.40;3.10;;;;;;;;;;4954625;28;20309;-75
2022/03/31 00:05:28;;;;;;;5.50;3.30;;;;;;;;;;4952028;28;20293;-76
2022/03/31 00:07:55;;;;;;;7.17;2.90;;;;;;;;;;4936957;29;20223;-75
2022/03/31 00:10:35;;;;;;;6.20;3.00;;;;;;;;;;4933719;28;20207;-74
2022/03/31 00:13:02;;;;;;;5.40;3.17;;;;;;;;;;4966677;28;20230;-75
2022/03/31 00:15:28;;;;;;;5.77;3.20;;;;;;;;;;4947686;28;20834;-74
2022/03/31 00:17:54;;;;;;;5.17;3.23;;;;;;;;;;4963557;28;20397;-75
2022/03/31 00:20:20;;;;;;;3.93;3.20;;;;;;;;;;4966703;28;20227;-75
2022/03/31 00:22:48;;;;;;;6.47;3.13;;;;;;;;;;4966409;28;20301;-75
2022/03/31 00:25:16;;;;;;;5.90;3.20;;;;;;;;;;4949480;28;20321;-74
2022/03/31 00:27:41;;;;;;;7.40;3.27;;;;;;;;;;4950789;28;20667;-74
2022/03/31 00:30:12;;;;;;;7.57;3.00;;;;;;;;;;4950455;28;20222;-74
2022/03/31 00:32:37;;;;;;;6.27;3.30;;;;;;;;;;4934331;29;20241;-75
2022/03/31 00:35:06;;;;;;;4.00;3.03;;;;;;;;;;4940122;28;20619;-75
2022/03/31 00:37:34;;;;;;;4.80;3.13;;;;;;;;;;4935064;28;20249;-74
2022/03/31 00:39:59;;;;;;;5.63;2.77;;;;;;;;;;4934638;29;20720;-75
2022/03/31 00:42:27;;;;;;;4.00;2.93;;;;;;;;;;4949098;28;20226;-74
2022/03/31 00:44:57;;;;;;;4.13;2.80;;;;;;;;;;4972336;28;20720;-74
2022/03/31 00:47:25;;;;;;;3.73;2.90;;;;;;;;;;4972445;28;20226;-74
2022/03/31 00:49:52;;;;;;;5.07;2.57;;;;;;;;;;4940870;28;20633;-76
2022/03/31 00:52:18;;;;;;;6.13;2.70;;;;;;;;;;4956096;28;20280;-76
2022/03/31 00:54:46;;;;;;;4.23;2.67;;;;;;;;;;4961134;28;20587;-76
2022/03/31 00:57:11;;;;;;;4.50;2.93;;;;;;;;;;4956871;28;20289;-75
2022/03/31 00:59:37;;;;;;;3.47;2.87;;;;;;;;;;4940542;28;20222;-75
2022/03/31 01:02:02;;;;;;;4.83;3.10;;;;;;;;;;4955782;28;20252;-75
2022/03/31 01:04:34;;;;;;;5.07;2.60;;;;;;;;;;4940747;28;20608;-74
2022/03/31 01:07:00;;;;;;;4.83;2.93;;;;;;;;;;4956695;28;20232;-75
2022/03/31 01:09:25;;;;;;;4.83;2.90;;;;;;;;;;4956313;28;20222;-75
2022/03/31 01:11:53;;;;;;;4.90;2.80;;;;;;;;;;4972051;28;20358;-77
2022/03/31 01:14:23;;;;;;;3.10;2.77;;;;;;;;;;4940595;28;20250;-75
2022/03/31 01:16:49;;;;;;;4.50;2.77;;;;;;;;;;4956129;28;20759;-75
2022/03/31 01:19:14;;;;;;;3.37;2.60;;;;;;;;;;4956141;28;20231;-74
2022/03/31 01:21:43;;;;;;;4.20;2.93;;;;;;;;;;4957082;28;20305;-76
2022/03/31 01:24:10;;;;;;;4.80;2.90;;;;;;;;;;4972136;28;20254;-75
2022/03/31 01:26:37;;;;;;;3.43;2.70;;;;;;;;;;4956892;28;20226;-75
2022/03/31 01:29:04;;;;;;;4.77;3.10;;;;;;;;;;4956197;28;20234;-75
2022/03/31 01:31:30;;;;;;;4.20;3.00;;;;;;;;;;4956266;28;20227;-75
2022/03/31 01:33:58;;;;;;;8.47;3.17;;;;;;;;;;4941437;28;20227;-75
2022/03/31 01:36:24;;;;;;;4.87;3.13;;;;;;;;;;4958163;28;20219;-75
2022/03/31 01:38:51;;;;;;;4.93;3.03;;;;;;;;;;4958416;28;20258;-75
2022/03/31 01:41:17;;;;;;;4.10;3.50;;;;;;;;;;4957270;28;20235;-76
2022/03/31 01:43:42;;;;;;;5.77;3.27;;;;;;;;;;4973856;28;20237;-76
2022/03/31 01:46:08;;;;;;;5.83;3.50;;;;;;;;;;4957066;28;20248;-75
2022/03/31 01:48:38;;;;;;;3.50;3.20;;;;;;;;;;4973989;28;20223;-76
2022/03/31 01:51:07;;;;;;;5.00;3.53;;;;;;;;;;4972309;28;20708;-74
2022/03/31 01:53:33;;;;;;;5.90;3.70;;;;;;;;;;4941509;29;20330;-75
2022/03/31 01:55:59;;;;;;;4.43;3.40;;;;;;;;;;4953293;28;20238;-75
2022/03/31 01:58:26;;;;;;;6.47;3.40;;;;;;;;;;4966283;28;20216;-74
2022/03/31 02:00:52;;;;;;;4.83;3.80;;;;;;;;;;4952237;28;20743;-75
2022/03/31 02:03:18;;;;;;;6.13;3.77;;;;;;;;;;4939466;28;20223;-75
2022/03/31 02:05:44;;;;;;;5.07;3.67;;;;;;;;;;4966959;28;20229;-75
2022/03/31 02:08:09;;;;;;;4.20;3.53;;;;;;;;;;4952913;28;20282;-75
2022/03/31 02:10:35;;;;;;;3.60;3.20;;;;;;;;;;4967371;28;20219;-76
2022/03/31 02:13:03;;;;;;;3.53;2.97;;;;;;;;;;4966189;28;20227;-75
2022/03/31 02:15:30;;;;;;;5.70;3.67;;;;;;;;;;4950084;28;20583;-76
2022/03/31 02:17:56;;;;;;;4.33;3.40;;;;;;;;;;4950365;28;20230;-76
2022/03/31 02:20:27;;;;;;;4.80;3.10;;;;;;;;;;4952996;28;20238;-75
2022/03/31 02:22:53;;;;;;;4.40;3.20;;;;;;;;;;4967095;28;20219;-75
2022/03/31 02:25:19;;;;;;;6.13;3.50;;;;;;;;;;4952978;28;20223;-74
2022/03/31 02:27:44;;;;;;;4.77;3.30;;;;;;;;;;4952519;28;20244;-76
2022/03/31 02:30:10;;;;;;;6.43;3.60;;;;;;;;;;4953085;28;20294;-76
2022/03/31 02:32:38;;;;;;;4.57;3.20;;;;;;;;;;4954106;28;20223;-74
2022/03/31 02:35:05;;;;;;;4.93;3.40;;;;;;;;;;4951291;28;20314;-75
2022/03/31 02:37:31;;;;;;;4.50;3.13;;;;;;;;;;4936420;29;20219;-75
2022/03/31 02:39:57;;;;;;;4.77;3.30;;;;;;;;;;4969517;28;20222;-75
2022/03/31 02:42:22;;;;;;;7.03;3.23;;;;;;;;;;4968061;28;20245;-75
2022/03/31 02:44:50;;;;;;;4.03;3.43;;;;;;;;;;4968338;28;20226;-75
2022/03/31 02:47:15;;;;;;;4.53;3.00;;;;;;;;;;4967915;28;20257;-75
2022/03/31 02:49:41;;;;;;;3.50;3.20;;;;;;;;;;4952640;28;20310;-75
2022/03/31 02:52:07;;;;;;;4.80;3.17;;;;;;;;;;4939288;28;20306;-75
2022/03/31 02:57:18;;;;;;;4.67;3.50;;;;;;;;;;4951720;28;20223;-78
2022/03/31 02:59:44;;;;;;;4.63;3.60;;;;;;;;;;4952581;28;20274;-74
2022/03/31 03:02:13;;;;;;;6.07;3.93;;;;;;;;;;4967315;28;20635;-74
2022/03/31 03:04:38;;;;;;;3.50;3.20;;;;;;;;;;4969341;28;20226;-75
2022/03/31 03:07:04;;;;;;;8.20;3.90;;;;;;;;;;4951924;28;20237;-76
2022/03/31 03:09:29;;;;;;;6.40;3.60;;;;;;;;;;4952595;28;20246;-76
2022/03/31 03:12:00;;;;;;;5.17;3.50;;;;;;;;;;4968007;28;20309;-76
2022/03/31 03:14:25;;;;;;;4.77;3.70;;;;;;;;;;4951047;28;20314;-74
2022/03/31 03:16:54;;;;;;;4.40;3.40;;;;;;;;;;4936205;28;20702;-75
2022/03/31 03:19:19;;;;;;;4.20;3.63;;;;;;;;;;4951165;28;20297;-75
2022/03/31 03:21:44;;;;;;;4.23;3.53;;;;;;;;;;4951567;28;20238;-75
2022/03/31 03:24:11;;;;;;;3.90;3.53;;;;;;;;;;4954706;28;20326;-75
2022/03/31 03:26:36;;;;;;;5.63;3.97;;;;;;;;;;4951700;28;20230;-75
2022/03/31 03:29:02;;;;;;;6.60;4.30;;;;;;;;;;4951960;29;20231;-76
2022/03/31 03:31:27;;;;;;;4.80;4.10;;;;;;;;;;4967542;28;20222;-75
2022/03/31 03:33:55;;;;;;;6.00;4.00;;;;;;;;;;4951442;28;20665;-75
2022/03/31 03:36:23;;;;;;;4.97;3.90;;;;;;;;;;4920115;28;20289;-75
2022/03/31 03:38:48;;;;;;;10.00;8.10;;;;;;;;;;4935479;29;20230;-75
2022/03/31 03:41:14;;;;;;;6.60;4.90;;;;;;;;;;4950823;28;20241;-76
2022/03/31 03:43:40;;;;;;;5.17;4.40;;;;;;;;;;4955353;28;20363;-74
2022/03/31 03:46:08;;;;;;;5.60;4.63;;;;;;;;;;4967840;28;20639;-75
2022/03/31 03:48:33;;;;;;;7.97;6.70;;;;;;;;;;4936996;29;20230;-73
2022/03/31 03:50:59;;;;;;;6.33;5.30;;;;;;;;;;4979843;28;20281;-73
2022/03/31 03:53:27;;;;;;;8.40;5.90;;;;;;;;;;4944344;28;20222;-73
2022/03/31 03:55:52;;;;;;;5.47;4.50;;;;;;;;;;4944525;29;20708;-73
2022/03/31 03:58:20;;;;;;;5.73;5.20;;;;;;;;;;4976958;28;20227;-75
2022/03/31 04:00:48;;;;;;;7.43;5.50;;;;;;;;;;4961000;28;20727;-74
2022/03/31 04:03:17;;;;;;;6.30;5.33;;;;;;;;;;4944521;28;20252;-74
2022/03/31 04:05:43;;;;;;;6.70;6.00;;;;;;;;;;4975742;28;20278;-75
2022/03/31 04:08:08;;;;;;;7.87;6.07;;;;;;;;;;4952832;28;20258;-75
2022/03/31 04:10:38;;;;;;;7.97;6.67;;;;;;;;;;4952743;28;20218;-75
2022/03/31 04:13:04;;;;;;;6.67;5.93;;;;;;;;;;4950436;28;20223;-76
2022/03/31 04:15:30;;;;;;;8.07;7.03;;;;;;;;;;4967457;28;20736;-76
2022/03/31 04:18:05;;;;;;;8.27;7.40;;;;;;;;;;4951012;28;20246;-74
2022/03/31 04:20:32;;;;;;;7.97;7.00;;;;;;;;;;4932655;28;20604;-75
2022/03/31 04:22:58;;;;;;;8.67;6.93;;;;;;;;;;4951857;28;20223;-75
2022/03/31 04:25:25;;;;;;;11.27;7.03;;;;;;;;;;4934997;28;20334;-76
2022/03/31 04:27:51;;;;;;;8.97;7.13;;;;;;;;;;4950880;29;20227;-74
2022/03/31 04:30:20;;;;;;;7.63;6.93;;;;;;;;;;4950122;28;20612;-76
2022/03/31 04:32:46;;;;;;;9.03;7.27;;;;;;;;;;4952493;28;20238;-76
2022/03/31 04:35:14;;;;;;;7.87;7.10;;;;;;;;;;4952532;28;20339;-75
2022/03/31 04:37:40;;;;;;;9.17;7.03;;;;;;;;;;4935664;29;20222;-75
2022/03/31 04:40:06;;;;;;;8.17;7.30;;;;;;;;;;4967592;28;20226;-75
2022/03/31 04:42:32;;;;;;;8.50;7.30;;;;;;;;;;4967271;28;20233;-74
2022/03/31 04:45:02;;;;;;;7.90;7.10;;;;;;;;;;4965727;28;20234;-73
2022/03/31 04:47:28;;;;;;;8.30;7.50;;;;;;;;;;4949146;28;20233;-75
2022/03/31 04:49:54;;;;;;;8.47;7.57;;;;;;;;;;4949401;29;20224;-75
2022/03/31 04:52:19;;;;;;;8.17;7.33;;;;;;;;;;4950602;28;20716;-73
2022/03/31 04:54:45;;;;;;;8.17;7.37;;;;;;;;;;4968176;28;20230;-76
2022/03/31 04:57:16;;;;;;;9.73;7.83;;;;;;;;;;4966346;28;20227;-75
2022/03/31 04:59:41;;;;;;;7.87;7.07;;;;;;;;;;4935199;29;20226;-74
2022/03/31 05:02:09;;;;;;;9.83;7.63;;;;;;;;;;4950358;28;20281;-74
2022/03/31 05:04:35;;;;;;;8.30;7.50;;;;;;;;;;4966854;28;20233;-75
2022/03/31 05:07:01;;;;;;;8.73;7.80;;;;;;;;;;4951466;28;20246;-74
2022/03/31 05:09:27;;;;;;;9.17;8.23;;;;;;;;;;4935379;28;20222;-74
2022/03/31 05:11:52;;;;;;;8.53;7.63;;;;;;;;;;4954277;28;20203;-74
2022/03/31 05:14:20;;;;;;;9.57;7.97;;;;;;;;;;4967652;28;20257;-74
2022/03/31 05:16:46;;;;;;;9.83;8.10;;;;;;;;;;4966491;28;20322;-75
2022/03/31 05:19:12;;;;;;;9.03;7.60;;;;;;;;;;4967619;28;20377;-74
2022/03/31 05:21:37;;;;;;;8.77;7.63;;;;;;;;;;4966733;28;20234;-74
2022/03/31 05:24:06;;;;;;;9.53;7.90;;;;;;;;;;4960405;28;20241;-75
2022/03/31 05:26:31;;;;;;;10.97;8.70;;;;;;;;;;4951619;28;20285;-75
2022/03/31 05:28:57;;;;;;;9.80;8.40;;;;;;;;;;4918717;28;20222;-74
2022/03/31 05:31:22;;;;;;;8.93;8.03;;;;;;;;;;4952697;28;20310;-75
2022/03/31 05:33:50;;;;;;;9.07;8.17;;;;;;;;;;4954846;28;20795;-74
2022/03/31 05:36:16;;;;;;;9.53;8.30;;;;;;;;;;4952798;28;20227;-74
2022/03/31 05:38:41;;;;;;;10.87;8.43;;;;;;;;;;4954636;28;20227;-74
2022/03/31 05:41:07;;;;;;;9.97;8.63;;;;;;;;;;4953926;28;20724;-75
2022/03/31 05:43:32;;;;;;;10.17;8.67;;;;;;;;;;4938134;29;20237;-75
2022/03/31 05:46:00;;;;;;;9.50;8.50;;;;;;;;;;4953773;28;20233;-75
2022/03/31 05:48:26;;;;;;;9.33;8.43;;;;;;;;;;4920277;28;20230;-74
2022/03/31 05:50:51;;;;;;;12.20;9.23;;;;;;;;;;4969781;28;20305;-74
2022/03/31 05:53:17;;;;;;;9.93;8.90;;;;;;;;;;4953145;28;20245;-74
2022/03/31 05:55:45;;;;;;;9.83;8.70;;;;;;;;;;4954033;28;20241;-75
2022/03/31 05:58:11;;;;;;;11.90;9.50;;;;;;;;;;4970091;28;20234;-74
2022/03/31 06:00:36;;;;;;;9.53;8.53;;;;;;;;;;4954710;29;20226;-75
2022/03/31 06:03:02;;;;;;;9.53;8.53;;;;;;;;;;4937057;29;20218;-74
2022/03/31 06:05:28;;;;;;;11.63;8.90;;;;;;;;;;4953585;28;20234;-75
2022/03/31 06:07:53;;;;;;;9.63;8.13;;;;;;;;;;4954175;28;20231;-75
2022/03/31 06:10:20;;;;;;;10.90;8.17;;;;;;;;;;4953730;28;20231;-74
2022/03/31 06:12:45;;;;;;;11.50;8.73;;;;;;;;;;4953062;28;20697;-74
2022/03/31 06:15:11;;;;;;;9.57;8.30;;;;;;;;;;4937657;28;20265;-75
2022/03/31 06:17:40;;;;;;;9.67;8.33;;;;;;;;;;4954785;28;20311;-75
2022/03/31 06:20:06;;;;;;;10.80;8.07;;;;;;;;;;4935776;28;20230;-75
2022/03/31 06:22:34;;;;;;;11.00;7.37;;;;;;;;;;4954881;28;20226;-74
2022/03/31 06:25:06;;;;;;;8.17;7.37;;;;;;;;;;4938490;28;20230;-74
2022/03/31 06:27:35;;;;;;;8.63;7.47;;;;;;;;;;4968826;28;20252;-74
2022/03/31 06:30:04;;;;;;;9.63;7.37;;;;;;;;;;4938602;29;20736;-75
2022/03/31 06:32:29;;;;;;;10.60;7.40;;;;;;;;;;4953533;28;20310;-75
2022/03/31 06:35:00;;;;;;;9.20;7.27;;;;;;;;;;4955280;28;20234;-76
2022/03/31 06:37:27;;;;;;;8.13;7.00;;;;;;;;;;4938921;28;20222;-74
2022/03/31 06:39:53;;;;;;;9.93;7.00;;;;;;;;;;4924406;29;20215;-74
2022/03/31 06:42:21;;;;;;;9.53;6.77;;;;;;;;;;4939178;28;20226;-74
2022/03/31 06:44:46;;;;;;;8.93;7.17;;;;;;;;;;4969551;28;20767;-74
2022/03/31 06:47:12;;;;;;;8.47;7.20;;;;;;;;;;4936172;28;20219;-74
2022/03/31 06:49:40;;;;;;;8.00;6.63;;;;;;;;;;4935197;28;20226;-74
2022/03/31 06:52:06;;;;;;;8.20;6.30;;;;;;;;;;4950236;28;20700;-75
2022/03/31 06:54:33;;;;;;;9.53;6.77;;;;;;;;;;4950426;28;20314;-75
2022/03/31 06:56:59;;;;;;;9.13;6.60;;;;;;;;;;4957513;28;20227;-75
2022/03/31 06:59:24;;;;;;;8.17;6.40;;;;;;;;;;4937494;28;20219;-75
2022/03/31 07:01:50;;;;;;;7.30;6.30;;;;;;;;;;4952975;28;20231;-75
2022/03/31 07:04:16;;;;;;;8.93;6.50;;;;;;;;;;4938873;28;20222;-75
2022/03/31 07:06:44;;;;;;;7.00;5.10;;;;;;;;;;4949610;28;20219;-75
2022/03/31 07:09:09;;;;;;;7.87;6.10;;;;;;;;;;4951843;28;20223;-77
2022/03/31 07:11:35;;;;;;;7.13;5.37;;;;;;;;;;4937349;29;20230;-75
2022/03/31 07:14:05;;;;;;;7.23;5.47;;;;;;;;;;4953202;28;20249;-74
2022/03/31 07:16:31;;;;;;;7.17;5.33;;;;;;;;;;4954400;28;20247;-75
2022/03/31 07:19:01;;;;;;;6.50;5.27;;;;;;;;;;4952896;28;20297;-75
2022/03/31 07:21:30;;;;;;;7.20;5.43;;;;;;;;;;4967820;28;20720;-76
2022/03/31 07:23:55;;;;;;;7.97;5.23;;;;;;;;;;4954739;28;20256;-75
2022/03/31 07:26:22;;;;;;;6.40;4.67;;;;;;;;;;4968997;28;20226;-75
2022/03/31 07:28:50;;;;;;;8.13;5.10;;;;;;;;;;4952823;28;20598;-75
2022/03/31 07:31:18;;;;;;;6.70;5.57;;;;;;;;;;4951998;28;20226;-75
2022/03/31 07:33:46;;;;;;;6.53;5.30;;;;;;;;;;4953876;28;20230;-75
2022/03/31 07:36:14;;;;;;;5.97;5.20;;;;;;;;;;4936898;28;20229;-76
2022/03/31 07:38:42;;;;;;;7.67;5.03;;;;;;;;;;4953245;28;20242;-76
2022/03/31 07:41:07;;;;;;;7.13;4.90;;;;;;;;;;4953037;28;20226;-75
2022/03/31 07:43:34;;;;;;;5.73;5.13;;;;;;;;;;4935900;28;20215;-76
2022/03/31 07:46:05;;;;;;;9.03;5.30;;;;;;;;;;4953659;28;20307;-77
2022/03/31 07:48:31;;;;;;;9.47;5.30;;;;;;;;;;4947219;28;20235;-76
2022/03/31 07:51:01;;;;;;;8.93;5.10;;;;;;;;;;4971973;28;20226;-78
2022/03/31 07:53:32;;;;;;;6.63;5.40;;;;;;;;;;4969990;28;20233;-76
2022/03/31 07:56:09;;;;;;;6.87;4.77;;;;;;;;;;4969156;28;20733;-78
2022/03/31 07:58:36;;;;;;;6.10;5.10;;;;;;;;;;4958247;28;20222;-78
2022/03/31 08:01:02;;;;;;;7.10;5.23;;;;;;;;;;4955649;28;20621;-76
2022/03/31 08:03:28;;;;;;;7.83;5.37;;;;;;;;;;4919937;29;20319;-75
2022/03/31 08:05:55;;;;;;;7.87;5.40;;;;;;;;;;4956329;28;20302;-76
2022/03/31 08:08:21;;;;;;;7.57;5.03;;;;;;;;;;4949681;28;20302;-77
2022/03/31 08:10:50;;;;;;;7.70;5.27;;;;;;;;;;4968114;28;20566;-76
2022/03/31 08:13:22;;;;;;;7.77;5.10;;;;;;;;;;4950758;28;20222;-78
2022/03/31 08:15:48;;;;;;;7.20;5.60;;;;;;;;;;4937922;28;20222;-78
2022/03/31 08:18:19;;;;;;;5.73;4.50;;;;;;;;;;4952774;28;20277;-74
2022/03/31 08:20:45;;;;;;;6.17;4.43;;;;;;;;;;4949812;28;20278;-78
2022/03/31 08:23:11;;;;;;;6.73;4.90;;;;;;;;;;4952978;28;20816;-77
2022/03/31 08:25:41;;;;;;;7.70;4.83;;;;;;;;;;4938806;28;20313;-75
2022/03/31 08:28:09;;;;;;;9.10;5.47;;;;;;;;;;4934750;28;20223;-72
2022/03/31 08:30:35;;;;;;;6.13;5.00;;;;;;;;;;4955215;28;20219;-76
2022/03/31 08:33:03;;;;;;;7.83;4.40;;;;;;;;;;4969256;28;20223;-74
2022/03/31 08:35:28;;;;;;;5.10;4.60;;;;;;;;;;4951465;28;20238;-75
2022/03/31 08:37:54;;;;;;;7.67;4.90;;;;;;;;;;4937907;28;20302;-76
2022/03/31 08:40:20;;;;;;;6.23;4.77;;;;;;;;;;4953519;28;20712;-75
2022/03/31 08:42:45;;;;;;;6.93;4.97;;;;;;;;;;4968855;28;20227;-75
2022/03/31 08:45:14;;;;;;;7.00;5.00;;;;;;;;;;4950047;28;20231;-74
2022/03/31 08:47:40;;;;;;;5.40;4.80;;;;;;;;;;4950118;28;20219;-75
2022/03/31 08:50:09;;;;;;;5.97;4.60;;;;;;;;;;4947446;28;20223;-77
2022/03/31 08:52:35;;;;;;;5.23;4.70;;;;;;;;;;4965197;28;20258;-74
2022/03/31 08:55:00;;;;;;;7.43;4.83;;;;;;;;;;4935578;29;20226;-75
2022/03/31 08:57:38;;;;;;;8.83;5.83;;;;;;;;;;4951319;28;20298;-75
2022/03/31 09:00:04;;;;;;;7.83;6.07;;;;;;;;;;4934357;28;20238;-74
2022/03/31 09:02:29;;;;;;;5.93;5.30;;;;;;;;;;4935066;29;20289;-76
2022/03/31 09:05:03;;;;;;;8.63;5.63;;;;;;;;;;4954340;28;20226;-75
2022/03/31 09:07:29;;;;;;;7.53;5.10;;;;;;;;;;4939986;29;20641;-77
2022/03/31 09:09:54;;;;;;;5.57;4.90;;;;;;;;;;4956093;28;20233;-75
2022/03/31 09:12:22;;;;;;;6.10;4.43;;;;;;;;;;4938977;28;20758;-75
2022/03/31 09:14:47;;;;;;;7.90;4.83;;;;;;;;;;4955462;28;20716;-75
2022/03/31 09:17:15;;;;;;;6.40;4.40;;;;;;;;;;4971333;28;20318;-76
2022/03/31 09:19:43;;;;;;;5.67;4.57;;;;;;;;;;4945515;28;20347;-77
2022/03/31 09:22:11;;;;;;;5.67;4.60;;;;;;;;;;4950890;28;20235;-75
2022/03/31 09:24:39;;;;;;;7.03;4.90;;;;;;;;;;4955176;28;20314;-75
2022/03/31 09:27:06;;;;;;;5.67;4.63;;;;;;;;;;4970650;28;20255;-74
2022/03/31 09:29:34;;;;;;;5.57;4.57;;;;;;;;;;4948432;28;20230;-74
2022/03/31 09:32:10;;;;;;;5.53;4.47;;;;;;;;;;4969125;28;20219;-76
2022/03/31 09:34:40;;;;;;;7.80;4.80;;;;;;;;;;4955145;28;20226;-74
2022/03/31 09:37:07;;;;;;;5.77;4.50;;;;;;;;;;4969676;28;20226;-79
2022/03/31 09:39:35;;;;;;;5.20;4.33;;;;;;;;;;4955445;28;20301;-74
2022/03/31 09:42:00;;;;;;;6.53;4.07;;;;;;;;;;4924113;28;20238;-73
2022/03/31 09:44:26;;;;;;;5.03;4.20;;;;;;;;;;4954214;28;20230;-75
2022/03/31 09:46:52;;;;;;;5.93;4.60;;;;;;;;;;4973628;28;20246;-73
2022/03/31 09:49:23;;;;;;;5.30;4.10;;;;;;;;;;4938080;28;20233;-78
2022/03/31 09:51:58;;;;;;;5.27;3.83;;;;;;;;;;4958358;28;20723;-74
2022/03/31 09:54:26;;;;;;;5.60;3.80;;;;;;;;;;4972320;28;20231;-76
2022/03/31 09:56:56;;;;;;;4.97;3.70;;;;;;;;;;4957353;28;20233;-78
2022/03/31 09:59:21;;;;;;;5.47;3.90;;;;;;;;;;4954809;28;20222;-72
2022/03/31 10:01:47;;;;;;;4.33;3.60;;;;;;;;;;4951231;28;20262;-74
2022/03/31 10:04:16;;;;;;;7.17;4.13;;;;;;;;;;4953381;28;20705;-76
2022/03/31 10:06:42;;;;;;;4.13;3.60;;;;;;;;;;4961546;28;20259;-77
2022/03/31 10:09:09;;;;;;;4.30;3.23;;;;;;;;;;4959193;28;20227;-74
2022/03/31 10:11:37;;;;;;;5.50;3.40;;;;;;;;;;4955597;28;20945;-77
2022/03/31 10:14:15;;;;;;;4.57;3.17;;;;;;;;;;4941515;28;20223;-78
2022/03/31 10:16:55;;;;;;;3.67;2.83;;;;;;;;;;4953706;28;20222;-75
2022/03/31 10:19:37;;;;;;;4.30;3.50;;;;;;;;;;4936008;28;20231;-75
2022/03/31 10:22:09;;;;;;;4.17;3.60;;;;;;;;;;4967769;28;20238;-79
2022/03/31 10:24:47;;;;;;;6.93;3.63;;;;;;;;;;4953514;28;20306;-75
2022/03/31 10:27:23;;;;;;;3.40;3.00;;;;;;;;;;4970518;28;20301;-77
2022/03/31 10:29:52;;;;;;;4.23;3.10;;;;;;;;;;4954169;28;20309;-75
2022/03/31 10:32:20;;;;;;;6.43;3.40;;;;;;;;;;4939132;28;20923;-74
2022/03/31 10:34:48;;;;;;;4.40;2.97;;;;;;;;;;4946768;28;20242;-76
2022/03/31 10:37:17;;;;;;;3.60;3.20;;;;;;;;;;4970571;28;20626;-75
2022/03/31 10:39:53;;;;;;;5.57;3.43;;;;;;;;;;4954759;28;20294;-74
2022/03/31 10:42:18;;;;;;;3.90;3.23;;;;;;;;;;4954543;28;20226;-77
2022/03/31 10:44:44;;;;;;;5.17;3.30;;;;;;;;;;4939807;29;20313;-75
2022/03/31 10:47:11;;;;;;;4.30;3.50;;;;;;;;;;4957580;28;20221;-76
2022/03/31 10:49:37;;;;;;;4.00;3.50;;;;;;;;;;4970506;28;20222;-75
2022/03/31 10:52:17;;;;;;;7.33;3.50;;;;;;;;;;4968193;28;20309;-74
2022/03/31 10:54:43;;;;;;;5.13;3.30;;;;;;;;;;4937179;28;20222;-75
2022/03/31 10:57:12;;;;;;;5.97;3.67;;;;;;;;;;4968717;28;20227;-75
2022/03/31 10:59:38;;;;;;;4.20;3.30;;;;;;;;;;4970021;28;20230;-76
2022/03/31 11:02:16;;;;;;;4.63;3.30;;;;;;;;;;4937173;28;20832;-76
2022/03/31 11:04:49;;;;;;;4.67;3.20;;;;;;;;;;4967825;28;20222;-76
2022/03/31 11:07:16;;;;;;;4.13;3.07;;;;;;;;;;4954451;28;20214;-75
2022/03/31 11:09:43;;;;;;;4.27;3.03;;;;;;;;;;4956694;28;20314;-75
2022/03/31 11:12:19;;;;;;;4.50;3.03;;;;;;;;;;4939652;28;20270;-79
2022/03/31 11:15:00;;;;;;;4.03;2.60;;;;;;;;;;4941068;29;20226;-77
2022/03/31 11:17:30;;;;;;;4.27;2.90;;;;;;;;;;4955764;28;20223;-78
2022/03/31 11:19:58;;;;;;;4.10;2.67;;;;;;;;;;4942879;28;20219;-78
2022/03/31 11:22:28;;;;;;;4.53;3.00;;;;;;;;;;4941043;28;20229;-75
2022/03/31 11:25:09;;;;;;;3.90;2.87;;;;;;;;;;4955898;28;20241;-78
2022/03/31 11:27:41;;;;;;;3.10;2.80;;;;;;;;;;4965026;28;20243;-74
2022/03/31 11:30:11;;;;;;;6.07;2.80;;;;;;;;;;4971099;28;20235;-75
2022/03/31 11:32:40;;;;;;;3.13;2.63;;;;;;;;;;4985040;28;20222;-75
2022/03/31 11:35:13;;;;;;;4.63;2.40;;;;;;;;;;4951174;28;20254;-78
2022/03/31 11:37:50;;;;;;;4.70;2.87;;;;;;;;;;4966080;28;20218;-75
2022/03/31 11:41:04;;;;;;;3.13;2.30;;;;;;;;;;4940389;28;20237;-75
2022/03/31 11:43:32;;;;;;;3.20;2.57;;;;;;;;;;4909428;29;20231;-76
2022/03/31 11:45:58;;;;;;;2.90;2.23;;;;;;;;;;4963333;28;20231;-74
2022/03/31 11:48:39;;;;;;;2.43;2.23;;;;;;;;;;4953243;28;20233;-74
2022/03/31 11:51:13;;;;;;;3.87;2.10;;;;;;;;;;4968961;28;20222;-74
2022/03/31 11:53:40;;;;;;;3.20;2.13;;;;;;;;;;4957996;28;20230;-74
2022/03/31 11:56:15;;;;;;;3.27;2.57;;;;;;;;;;4964800;28;20254;-76
2022/03/31 11:58:55;;;;;;;2.73;2.03;;;;;;;;;;4947364;28;20281;-75
2022/03/31 12:01:43;;;;;;;2.17;1.97;;;;;;;;;;4983668;28;20293;-74
2022/03/31 12:04:24;;;;;;;3.23;2.30;;;;;;;;;;4962162;28;20894;-74
2022/03/31 12:06:51;;;;;;;5.00;2.40;;;;;;;;;;4963011;28;20215;-76
2022/03/31 12:09:18;;;;;;;2.30;2.10;;;;;;;;;;4959582;28;20223;-74
2022/03/31 12:11:45;;;;;;;3.47;2.10;;;;;;;;;;4952297;28;20218;-75
2022/03/31 12:14:11;;;;;;;3.23;2.07;;;;;;;;;;4951265;28;20231;-74
2022/03/31 12:16:52;;;;;;;2.67;2.00;;;;;;;;;;4968000;28;20233;-75
2022/03/31 12:19:22;;;;;;;2.50;2.07;;;;;;;;;;4951745;28;20934;-74
2022/03/31 12:21:49;;;;;;;2.43;1.90;;;;;;;;;;4969086;28;20247;-75
2022/03/31 12:24:15;;;;;;;2.60;2.00;;;;;;;;;;4935799;28;20649;-74
2022/03/31 12:27:03;;;;;;;2.93;2.10;;;;;;;;;;4969780;28;20222;-76
2022/03/31 12:29:33;;;;;;;2.00;1.90;;;;;;;;;;4966828;28;20281;-76
2022/03/31 12:32:02;;;;;;;2.40;2.07;;;;;;;;;;4951405;28;20611;-76
2022/03/31 12:34:30;;;;;;;2.20;2.00;;;;;;;;;;4951148;28;20227;-75
2022/03/31 12:36:55;;;;;;;3.43;2.00;;;;;;;;;;4935886;29;20286;-73
2022/03/31 12:39:21;;;;;;;2.47;1.90;;;;;;;;;;4935413;28;20218;-75
2022/03/31 12:41:51;;;;;;;2.70;1.97;;;;;;;;;;4951699;28;20585;-76
2022/03/31 12:44:21;;;;;;;2.90;1.90;;;;;;;;;;4937456;28;20252;-76
2022/03/31 12:46:59;;;;;;;2.67;1.90;;;;;;;;;;4953325;28;20317;-75
2022/03/31 12:49:28;;;;;;;3.50;1.77;;;;;;;;;;4965114;28;20799;-75
2022/03/31 12:51:58;;;;;;;2.30;2.00;;;;;;;;;;4955123;28;20226;-76
2022/03/31 12:54:25;;;;;;;2.33;1.77;;;;;;;;;;4939297;28;20716;-76
2022/03/31 12:56:52;;;;;;;2.03;1.70;;;;;;;;;;4955090;28;20229;-76
2022/03/31 12:59:30;;;;;;;3.90;1.50;;;;;;;;;;4949525;28;20226;-76
2022/03/31 13:02:03;;;;;;;3.93;1.67;;;;;;;;;;4955625;28;20253;-77
2022/03/31 13:04:29;;;;;;;4.50;1.90;;;;;;;;;;4968318;28;20231;-76
2022/03/31 13:06:55;;;;;;;3.43;1.67;;;;;;;;;;4954587;28;20226;-76
2022/03/31 13:09:20;;;;;;;3.63;1.80;;;;;;;;;;4952651;28;20242;-75
2022/03/31 13:11:48;;;;;;;3.30;1.67;;;;;;;;;;4953818;28;20215;-75
2022/03/31 13:14:16;;;;;;;3.33;1.77;;;;;;;;;;4952092;28;20706;-77
2022/03/31 13:16:42;;;;;;;5.27;1.67;;;;;;;;;;4953197;28;20222;-75
2022/03/31 13:19:07;;;;;;;2.10;1.40;;;;;;;;;;4956140;28;20229;-76
2022/03/31 13:21:38;;;;;;;2.57;1.40;;;;;;;;;;4953724;28;20302;-76
2022/03/31 13:24:06;;;;;;;2.37;1.30;;;;;;;;;;4966748;28;20262;-77
2022/03/31 13:26:32;;;;;;;2.70;1.57;;;;;;;;;;4962534;28;20767;-77
2022/03/31 13:29:02;;;;;;;1.87;1.30;;;;;;;;;;4942457;28;20223;-79
2022/03/31 13:31:28;;;;;;;2.17;1.67;;;;;;;;;;4940248;28;20318;-80
2022/03/31 13:33:53;;;;;;;2.50;1.20;;;;;;;;;;4955894;28;20273;-80
2022/03/31 13:36:21;;;;;;;1.77;1.40;;;;;;;;;;4944697;28;20229;-75
2022/03/31 13:38:46;;;;;;;2.63;1.23;;;;;;;;;;4938164;29;20218;-75
2022/03/31 13:41:12;;;;;;;1.80;1.10;;;;;;;;;;4956560;28;20292;-77
2022/03/31 13:43:38;;;;;;;2.03;1.20;;;;;;;;;;4957297;28;20223;-80
2022/03/31 13:46:03;;;;;;;2.67;1.30;;;;;;;;;;4955195;28;20230;-78
2022/03/31 13:48:29;;;;;;;1.40;1.30;;;;;;;;;;4941563;29;20266;-80
2022/03/31 13:50:55;;;;;;;2.00;1.10;;;;;;;;;;4958122;28;20215;-81
2022/03/31 13:56:08;;;;;;;2.20;1.63;;;;;;;;;;4960818;28;20250;-75
2022/03/31 14:01:22;;;;;;;2.57;1.40;;;;;;;;;;4955664;28;20242;-76
2022/03/31 14:03:48;;;;;;;1.63;1.30;;;;;;;;;;4922736;29;20235;-76
2022/03/31 14:06:16;;;;;;;2.07;1.50;;;;;;;;;;4959725;28;20218;-76
2022/03/31 14:08:45;;;;;;;3.23;1.50;;;;;;;;;;4940803;28;20230;-76
2022/03/31 14:11:11;;;;;;;2.57;1.20;;;;;;;;;;4962581;28;20265;-76
2022/03/31 14:13:39;;;;;;;4.10;1.37;;;;;;;;;;4938010;28;20216;-76
2022/03/31 14:16:10;;;;;;;2.13;1.10;;;;;;;;;;4941034;28;20229;-78
2022/03/31 14:18:44;;;;;;;3.17;1.30;;;;;;;;;;4955100;28;20260;-77
2022/03/31 14:21:12;;;;;;;1.33;0.93;;;;;;;;;;4956238;28;20722;-79
2022/03/31 14:23:39;;;;;;;3.90;1.40;;;;;;;;;;4955035;28;20278;-76
2022/03/31 14:26:04;;;;;;;1.20;1.10;;;;;;;;;;4953623;28;20271;-75
2022/03/31 14:28:35;;;;;;;1.87;1.30;;;;;;;;;;4970147;28;20823;-75
2022/03/31 14:31:07;;;;;;;1.77;1.20;;;;;;;;;;4954276;28;20219;-77
2022/03/31 14:33:35;;;;;;;2.20;1.13;;;;;;;;;;4941983;28;20727;-77
2022/03/31 14:36:00;;;;;;;1.63;1.20;;;;;;;;;;4956625;28;20246;-76
2022/03/31 14:38:27;;;;;;;2.57;1.00;;;;;;;;;;4939888;28;20246;-78
2022/03/31 14:40:57;;;;;;;1.57;1.00;;;;;;;;;;4970433;28;20305;-77
2022/03/31 14:43:23;;;;;;;2.03;1.10;;;;;;;;;;4953667;28;20310;-77
2022/03/31 14:45:49;;;;;;;1.20;0.93;;;;;;;;;;4954763;28;20786;-75
2022/03/31 14:48:15;;;;;;;1.70;1.00;;;;;;;;;;4938801;28;20234;-78
2022/03/31 14:50:42;;;;;;;1.77;1.10;;;;;;;;;;4957098;28;20792;-75
2022/03/31 14:53:10;;;;;;;1.10;1.00;;;;;;;;;;4954362;28;20325;-75
2022/03/31 14:55:36;;;;;;;2.20;1.00;;;;;;;;;;4969592;28;20226;-80